Time;durP1;ratioP1;P1;durP2;ratioP2;P2;SDS_P1;SDS_P2;PMS_P1;PMS_P2;Temp;Humidity;BMP_temperature;BMP_pressure;BME280_temperature;BME280_humidity;BME280_pressure;Samples;Min_cycle;Max_cycle;Signal;HPM_P1;HPM_P2
2022/04/04 00:00:19;;;;;;;8.93;4.82;;;4.10;59.40;;;;;;4991430;28;20050;-67
2022/04/04 00:02:44;;;;;;;5.30;3.40;;;4.00;59.70;;;;;;4990817;28;20500;-68
2022/04/04 00:05:11;;;;;;;6.75;3.65;;;4.10;59.20;;;;;;4991861;28;20026;-68
2022/04/04 00:07:37;;;;;;;15.55;8.90;;;4.00;60.10;;;;;;4990389;28;20019;-69
2022/04/04 00:10:04;;;;;;;7.65;4.30;;;4.10;61.20;;;;;;4990871;28;20036;-67
2022/04/04 00:12:29;;;;;;;5.50;3.72;;;4.10;59.50;;;;;;4991078;28;20100;-69
2022/04/04 00:14:55;;;;;;;8.18;4.40;;;4.00;59.70;;;;;;4991100;28;20528;-68
2022/04/04 00:17:22;;;;;;;14.27;7.25;;;4.00;59.90;;;;;;4990228;28;20057;-68
2022/04/04 00:19:47;;;;;;;9.38;4.85;;;4.00;60.60;;;;;;4990371;28;20034;-67
2022/04/04 00:22:13;;;;;;;11.63;5.35;;;4.10;59.90;;;;;;4990446;28;20184;-69
2022/04/04 00:24:39;;;;;;;10.98;5.72;;;4.00;60.60;;;;;;4973094;28;20562;-68
2022/04/04 00:27:04;;;;;;;8.80;3.90;;;4.00;60.40;;;;;;4989794;28;20369;-68
2022/04/04 00:29:30;;;;;;;9.02;4.57;;;4.00;59.80;;;;;;4972563;28;20113;-69
2022/04/04 00:31:56;;;;;;;8.65;4.22;;;4.00;60.30;;;;;;4989973;28;20081;-68
2022/04/04 00:34:34;;;;;;;11.88;6.28;;;4.00;60.40;;;;;;4990324;28;20024;-66
2022/04/04 00:36:59;;;;;;;12.18;5.90;;;4.00;60.90;;;;;;4989353;28;20092;-67
2022/04/04 00:39:26;;;;;;;6.25;3.83;;;4.00;61.00;;;;;;4989675;28;20026;-68
2022/04/04 00:41:51;;;;;;;14.35;7.10;;;3.90;60.50;;;;;;4989821;28;20113;-69
2022/04/04 00:44:17;;;;;;;7.28;3.83;;;3.90;60.70;;;;;;4990330;28;20110;-68
2022/04/04 00:46:43;;;;;;;5.07;3.15;;;3.90;61.30;;;;;;4989761;28;20488;-68
2022/04/04 00:49:09;;;;;;;4.13;3.15;;;3.90;60.30;;;;;;4989213;28;20022;-69
2022/04/04 00:51:39;;;;;;;7.80;4.43;;;3.90;60.90;;;;;;4989600;28;20093;-69
2022/04/04 00:54:05;;;;;;;10.95;5.30;;;3.90;61.00;;;;;;4989991;28;20033;-70
2022/04/04 00:56:35;;;;;;;5.45;3.20;;;3.90;61.60;;;;;;4990203;28;20492;-70
2022/04/04 00:59:01;;;;;;;14.52;6.35;;;3.90;60.90;;;;;;4989362;28;20065;-70
2022/04/04 01:01:27;;;;;;;4.78;3.08;;;4.00;62.40;;;;;;4989972;28;20515;-70
2022/04/04 01:03:52;;;;;;;10.80;4.80;;;4.00;61.00;;;;;;4989975;28;20089;-70
2022/04/04 01:06:18;;;;;;;5.93;3.75;;;4.00;62.70;;;;;;4989555;28;20097;-69
2022/04/04 01:08:44;;;;;;;11.68;5.78;;;4.00;62.60;;;;;;4989317;28;20018;-69
2022/04/04 01:11:11;;;;;;;11.30;5.95;;;3.90;62.90;;;;;;4990064;28;20041;-69
2022/04/04 01:13:37;;;;;;;5.97;3.10;;;3.90;63.40;;;;;;4990307;28;20380;-69
2022/04/04 01:16:03;;;;;;;8.23;4.80;;;3.80;63.10;;;;;;4993925;28;20026;-69
2022/04/04 01:18:29;;;;;;;3.17;2.60;;;3.80;63.60;;;;;;4975613;28;20408;-69
2022/04/04 01:20:55;;;;;;;12.20;5.55;;;3.70;63.00;;;;;;4995191;28;20029;-68
2022/04/04 01:23:24;;;;;;;5.47;3.72;;;3.70;63.70;;;;;;5013406;28;20028;-68
2022/04/04 01:25:51;;;;;;;4.78;3.35;;;3.60;63.90;;;;;;5012638;28;20037;-68
2022/04/04 01:28:17;;;;;;;6.65;4.47;;;3.50;64.80;;;;;;4995097;28;20434;-69
2022/04/04 01:30:47;;;;;;;10.05;4.50;;;3.50;64.70;;;;;;4997376;28;20027;-68
2022/04/04 01:33:13;;;;;;;6.67;4.17;;;3.40;65.30;;;;;;4993456;28;20019;-69
2022/04/04 01:35:38;;;;;;;6.93;3.80;;;3.30;66.20;;;;;;4993251;28;20769;-69
2022/04/04 01:38:04;;;;;;;10.27;5.57;;;3.40;66.40;;;;;;4992727;28;20041;-69
2022/04/04 01:40:30;;;;;;;12.25;5.93;;;3.40;66.50;;;;;;4989248;28;20045;-68
2022/04/04 01:42:56;;;;;;;7.38;3.47;;;3.30;67.50;;;;;;4975544;28;20026;-68
2022/04/04 01:46:23;;;;;;;7.10;4.45;;;3.30;65.90;;;;;;4975672;28;20027;-69
2022/04/04 01:48:08;;;;;;;9.45;4.22;;;3.20;66.60;;;;;;4984247;28;20542;-69
2022/04/04 01:50:35;;;;;;;5.57;3.90;;;3.10;67.20;;;;;;4993074;28;20502;-69
2022/04/04 01:55:45;;;;;;;4.93;3.75;;;3.00;67.50;;;;;;4992649;28;20085;-68
2022/04/04 01:58:10;;;;;;;18.05;8.90;;;2.80;67.80;;;;;;4991782;28;20018;-68
2022/04/04 02:00:38;;;;;;;8.70;5.53;;;2.80;69.70;;;;;;4992802;28;20046;-68
2022/04/04 02:03:04;;;;;;;6.88;4.47;;;2.70;69.10;;;;;;4992490;28;20033;-68
2022/04/04 02:05:29;;;;;;;5.30;3.50;;;2.70;69.10;;;;;;4999695;28;20014;-68
2022/04/04 02:07:55;;;;;;;7.85;5.05;;;2.60;68.60;;;;;;5011365;28;20640;-68
2022/04/04 02:10:21;;;;;;;12.30;7.63;;;2.60;68.80;;;;;;4998940;28;20034;-68
2022/04/04 02:12:47;;;;;;;13.30;6.78;;;2.60;69.90;;;;;;4992435;28;20018;-68
2022/04/04 02:15:13;;;;;;;8.88;4.95;;;2.60;69.50;;;;;;4996385;28;20026;-68
2022/04/04 02:17:39;;;;;;;6.47;4.43;;;2.60;69.20;;;;;;5011089;28;20109;-68
2022/04/04 02:20:07;;;;;;;4.57;3.33;;;2.60;68.50;;;;;;5011962;28;20029;-68
2022/04/04 02:22:32;;;;;;;7.03;4.30;;;2.50;68.80;;;;;;4994374;28;20030;-68
2022/04/04 02:24:58;;;;;;;9.52;5.78;;;2.50;68.90;;;;;;4993719;28;20037;-69
2022/04/04 02:27:23;;;;;;;5.75;3.95;;;2.40;69.50;;;;;;5010896;28;20488;-69
2022/04/04 02:29:49;;;;;;;8.25;4.63;;;2.50;68.70;;;;;;5011733;28;20032;-68
2022/04/04 02:32:15;;;;;;;9.68;5.63;;;2.50;68.50;;;;;;5012173;28;20022;-68
2022/04/04 02:34:40;;;;;;;7.88;5.20;;;2.60;68.70;;;;;;5012073;28;20105;-68
2022/04/04 02:37:06;;;;;;;5.55;3.78;;;2.70;68.30;;;;;;4991600;28;20495;-67
2022/04/04 02:39:31;;;;;;;7.55;4.55;;;2.80;67.60;;;;;;4992218;28;20022;-68
2022/04/04 02:41:57;;;;;;;6.68;4.20;;;2.80;67.50;;;;;;4991811;28;20065;-68
2022/04/04 02:44:22;;;;;;;5.93;3.78;;;2.80;67.30;;;;;;4992352;28;20022;-69
2022/04/04 02:46:48;;;;;;;6.00;3.53;;;2.80;66.90;;;;;;4991983;28;20038;-68
2022/04/04 02:49:14;;;;;;;8.52;4.00;;;2.80;66.70;;;;;;4991311;28;20033;-67
2022/04/04 02:51:39;;;;;;;5.47;3.95;;;2.80;67.10;;;;;;4991711;28;20022;-67
2022/04/04 02:54:05;;;;;;;8.80;4.45;;;2.80;67.20;;;;;;4991849;28;20049;-70
2022/04/04 02:56:31;;;;;;;12.70;5.82;;;2.70;66.80;;;;;;4991534;28;20028;-70
2022/04/04 02:59:01;;;;;;;10.13;5.18;;;2.80;67.10;;;;;;4991093;28;20476;-68
2022/04/04 03:01:27;;;;;;;9.02;4.60;;;2.80;67.10;;;;;;4991656;28;20484;-68
2022/04/04 03:03:52;;;;;;;7.32;4.78;;;2.80;66.00;;;;;;4991318;28;20045;-68
2022/04/04 03:06:18;;;;;;;5.18;3.75;;;2.80;65.70;;;;;;4991795;28;20022;-68
2022/04/04 03:08:44;;;;;;;6.30;3.65;;;2.80;66.60;;;;;;4990841;28;20467;-68
2022/04/04 03:11:09;;;;;;;11.35;5.57;;;2.80;65.80;;;;;;4973855;28;20027;-68
2022/04/04 03:13:35;;;;;;;5.57;3.45;;;2.80;66.30;;;;;;4991432;28;20023;-67
2022/04/04 03:16:01;;;;;;;8.57;4.65;;;2.80;65.80;;;;;;4991279;28;20453;-68
2022/04/04 03:18:26;;;;;;;8.35;4.38;;;2.80;67.10;;;;;;4990339;28;20030;-68
2022/04/04 03:20:53;;;;;;;9.63;4.97;;;2.70;66.20;;;;;;4992545;28;20089;-68
2022/04/04 03:23:19;;;;;;;8.00;5.25;;;2.60;66.70;;;;;;5005934;28;20022;-67
2022/04/04 03:25:45;;;;;;;5.10;3.88;;;2.60;67.00;;;;;;4973256;28;20027;-67
2022/04/04 03:28:10;;;;;;;8.15;4.75;;;2.60;66.40;;;;;;4990387;28;20054;-69
2022/04/04 03:30:36;;;;;;;5.85;4.20;;;2.50;67.00;;;;;;4991140;28;20121;-70
2022/04/04 03:33:03;;;;;;;6.97;3.33;;;2.40;66.60;;;;;;4990920;28;20031;-69
2022/04/04 03:35:31;;;;;;;5.63;3.65;;;2.30;66.70;;;;;;4990858;28;20034;-69
2022/04/04 03:37:59;;;;;;;4.75;3.40;;;2.40;66.20;;;;;;4991161;28;20439;-69
2022/04/04 03:40:25;;;;;;;3.95;3.25;;;2.30;66.40;;;;;;4991116;28;20105;-69
2022/04/04 03:42:53;;;;;;;6.10;4.00;;;2.20;66.80;;;;;;4990725;28;20674;-70
2022/04/04 03:45:20;;;;;;;8.38;4.53;;;2.10;67.40;;;;;;4995591;28;20041;-69
2022/04/04 03:47:46;;;;;;;5.05;3.70;;;2.10;67.50;;;;;;5009248;28;20045;-69
2022/04/04 03:50:13;;;;;;;8.15;4.22;;;2.10;67.40;;;;;;5010290;28;20023;-69
2022/04/04 03:52:41;;;;;;;6.78;4.15;;;2.00;67.60;;;;;;5010183;28;20118;-69
2022/04/04 03:55:08;;;;;;;8.48;4.45;;;1.80;68.00;;;;;;5010197;28;20395;-69
2022/04/04 03:57:33;;;;;;;6.45;3.80;;;1.80;68.20;;;;;;5009211;28;20037;-69
2022/04/04 03:59:59;;;;;;;12.55;5.90;;;1.80;68.00;;;;;;5010159;28;20026;-70
2022/04/04 04:02:25;;;;;;;7.75;4.40;;;1.70;68.70;;;;;;5009950;28;20026;-69
2022/04/04 04:04:50;;;;;;;11.32;4.60;;;1.70;68.70;;;;;;4992290;28;20488;-70
2022/04/04 04:07:18;;;;;;;7.32;4.00;;;1.70;68.40;;;;;;5005905;28;20095;-70
2022/04/04 04:09:44;;;;;;;6.65;4.30;;;1.60;68.40;;;;;;4986883;28;20053;-70
2022/04/04 04:12:11;;;;;;;7.35;4.10;;;1.60;69.00;;;;;;4990219;28;20488;-69
2022/04/04 04:14:37;;;;;;;10.60;4.38;;;1.60;68.40;;;;;;4968607;28;20154;-68
2022/04/04 04:17:04;;;;;;;7.32;4.45;;;1.50;68.70;;;;;;4971455;28;20492;-67
2022/04/04 04:22:14;;;;;;;8.07;5.38;;;1.50;69.40;;;;;;4989664;28;20033;-68
2022/04/04 04:24:40;;;;;;;11.07;6.10;;;1.50;68.80;;;;;;4972780;28;20030;-69
2022/04/04 04:27:05;;;;;;;6.78;4.13;;;1.60;68.80;;;;;;4988762;28;20042;-66
2022/04/04 04:29:32;;;;;;;6.80;4.05;;;1.60;68.90;;;;;;4990062;28;20476;-68
2022/04/04 04:31:57;;;;;;;11.50;4.88;;;1.70;68.00;;;;;;4989620;28;20421;-70
2022/04/04 04:34:23;;;;;;;7.45;5.60;;;1.70;67.70;;;;;;4989742;28;20125;-69
2022/04/04 04:36:49;;;;;;;7.63;4.30;;;1.70;67.90;;;;;;4972135;28;20132;-69
2022/04/04 04:39:15;;;;;;;6.32;4.85;;;1.80;67.20;;;;;;4989129;28;20069;-69
2022/04/04 04:41:40;;;;;;;8.90;4.90;;;1.80;67.30;;;;;;4989709;28;20034;-69
2022/04/04 04:44:06;;;;;;;7.57;4.47;;;1.80;67.90;;;;;;4972564;28;20034;-68
2022/04/04 04:46:33;;;;;;;6.05;4.10;;;1.80;68.00;;;;;;4988609;28;20512;-68
2022/04/04 04:48:59;;;;;;;7.60;4.95;;;2.00;68.20;;;;;;4987847;28;20108;-66
2022/04/04 04:51:25;;;;;;;6.82;4.65;;;2.10;66.40;;;;;;4990095;28;20030;-67
2022/04/04 04:53:50;;;;;;;12.40;5.78;;;2.10;66.00;;;;;;4989435;28;20401;-68
2022/04/04 04:56:16;;;;;;;10.18;4.35;;;2.20;67.10;;;;;;4989618;28;20480;-69
2022/04/04 04:58:41;;;;;;;9.73;4.55;;;2.30;65.40;;;;;;4988755;28;20023;-68
2022/04/04 05:01:07;;;;;;;6.75;4.63;;;2.50;65.90;;;;;;4989594;28;20125;-67
2022/04/04 05:03:34;;;;;;;6.20;4.63;;;2.70;65.40;;;;;;4989298;28;20038;-68
2022/04/04 05:06:00;;;;;;;8.85;4.70;;;3.30;64.50;;;;;;4989072;28;20096;-69
2022/04/04 05:08:25;;;;;;;6.65;4.13;;;4.00;62.00;;;;;;4988739;28;20303;-68
2022/04/04 05:10:54;;;;;;;7.32;4.72;;;4.50;59.20;;;;;;4989390;28;20366;-68
2022/04/04 05:13:21;;;;;;;7.78;5.03;;;4.80;57.60;;;;;;4989561;28;20043;-67
2022/04/04 05:15:46;;;;;;;8.07;5.43;;;4.70;59.20;;;;;;4988588;28;20030;-68
2022/04/04 05:18:12;;;;;;;8.55;4.95;;;4.80;59.90;;;;;;4988339;28;20031;-67
2022/04/04 05:20:37;;;;;;;6.85;5.07;;;5.10;58.70;;;;;;4989378;28;20109;-68
2022/04/04 05:23:03;;;;;;;10.30;5.50;;;5.70;57.00;;;;;;4989037;28;20531;-68
2022/04/04 05:25:29;;;;;;;9.02;5.43;;;6.10;56.50;;;;;;4989300;28;20027;-68
2022/04/04 05:27:56;;;;;;;7.75;5.45;;;6.30;54.40;;;;;;4998197;28;20082;-69
2022/04/04 05:30:22;;;;;;;7.95;4.72;;;6.20;54.40;;;;;;5009174;28;20045;-67
2022/04/04 05:32:49;;;;;;;8.00;4.57;;;6.00;55.60;;;;;;5008489;28;20018;-68
2022/04/04 05:35:17;;;;;;;9.88;5.30;;;6.20;56.10;;;;;;5008436;28;20049;-68
2022/04/04 05:37:43;;;;;;;7.13;4.82;;;7.00;52.30;;;;;;4969953;28;20034;-68
2022/04/04 05:40:09;;;;;;;8.70;5.10;;;7.70;50.50;;;;;;4981647;28;20034;-69
2022/04/04 05:42:35;;;;;;;7.93;4.50;;;8.00;49.10;;;;;;4980117;28;20062;-68
2022/04/04 05:45:01;;;;;;;6.32;4.85;;;8.00;47.70;;;;;;4987904;28;20031;-68
2022/04/04 05:47:27;;;;;;;9.65;5.28;;;7.90;48.00;;;;;;4975957;28;20492;-68
2022/04/04 05:49:53;;;;;;;8.48;5.57;;;7.70;49.10;;;;;;4989111;28;20022;-68
2022/04/04 05:52:20;;;;;;;7.57;4.97;;;7.70;48.20;;;;;;4971644;28;20480;-68
2022/04/04 05:54:57;;;;;;;6.57;4.82;;;7.80;48.80;;;;;;4988872;28;20045;-69
2022/04/04 05:57:24;;;;;;;8.30;5.20;;;7.70;47.80;;;;;;4986969;28;20362;-70
2022/04/04 05:59:50;;;;;;;10.25;5.60;;;7.50;48.60;;;;;;4988985;28;20373;-71
2022/04/04 06:02:16;;;;;;;9.95;5.53;;;7.60;47.90;;;;;;4992161;28;20062;-70
2022/04/04 06:04:41;;;;;;;7.13;5.68;;;7.50;48.60;;;;;;4974796;28;20022;-70
2022/04/04 06:07:07;;;;;;;5.80;4.78;;;7.30;49.40;;;;;;4990785;28;20030;-69
2022/04/04 06:09:32;;;;;;;15.40;8.50;;;7.70;47.90;;;;;;4992339;28;20033;-69
2022/04/04 06:11:58;;;;;;;9.57;5.40;;;7.80;47.50;;;;;;4992048;28;20109;-70
2022/04/04 06:14:23;;;;;;;21.67;7.20;;;8.50;47.20;;;;;;4992192;28;20022;-70
2022/04/04 06:16:49;;;;;;;15.68;6.22;;;9.30;43.60;;;;;;4991631;28;20026;-70
2022/04/04 06:19:16;;;;;;;46.58;7.90;;;10.20;42.10;;;;;;4980980;28;20558;-69
2022/04/04 06:21:41;;;;;;;78.20;36.08;;;11.00;39.60;;;;;;4974307;28;20039;-69
2022/04/04 06:24:07;;;;;;;41.92;19.35;;;11.90;38.50;;;;;;4991894;28;20030;-70
2022/04/04 06:26:33;;;;;;;63.88;26.77;;;12.80;37.00;;;;;;4991657;28;20061;-70
2022/04/04 06:28:59;;;;;;;81.20;30.25;;;;;;;;;;4991105;28;20030;-70
2022/04/04 06:31:24;;;;;;;24.52;12.13;;;14.60;32.60;;;;;;4991869;28;20022;-70
2022/04/04 06:33:50;;;;;;;18.75;10.55;;;14.50;32.30;;;;;;4991132;28;20093;-70
2022/04/04 06:36:15;;;;;;;25.65;13.85;;;14.40;32.60;;;;;;4990962;28;20061;-71
2022/04/04 06:38:41;;;;;;;35.72;17.77;;;14.00;33.30;;;;;;4990548;28;20108;-70
2022/04/04 06:41:06;;;;;;;27.23;16.10;;;13.20;34.30;;;;;;4991096;28;20031;-72
2022/04/04 06:43:32;;;;;;;23.52;12.60;;;11.80;36.30;;;;;;4991377;28;20062;-71
2022/04/04 06:45:57;;;;;;;22.02;10.60;;;11.50;37.60;;;;;;4973749;28;20485;-71
2022/04/04 06:48:23;;;;;;;22.83;11.93;;;11.30;38.00;;;;;;4999722;28;20037;-71
2022/04/04 06:50:49;;;;;;;18.00;10.52;;;10.90;38.80;;;;;;5011599;28;20033;-69
2022/04/04 06:53:15;;;;;;;26.40;14.13;;;10.80;39.60;;;;;;5006339;28;20022;-70
2022/04/04 06:55:42;;;;;;;28.65;14.95;;;11.10;38.90;;;;;;4991142;28;20038;-70
2022/04/04 06:58:07;;;;;;;38.63;18.38;;;11.50;38.60;;;;;;5002074;28;20028;-70
2022/04/04 07:00:34;;;;;;;38.13;19.15;;;12.20;37.80;;;;;;5010959;28;20022;-72
2022/04/04 07:03:01;;;;;;;13.07;8.63;;;12.50;36.10;;;;;;5010744;28;20029;-70
2022/04/04 07:05:27;;;;;;;40.75;21.33;;;12.50;35.50;;;;;;4995941;28;20044;-70
2022/04/04 07:07:52;;;;;;;10.40;7.40;;;12.50;36.50;;;;;;4990243;28;20027;-71
2022/04/04 07:10:18;;;;;;;33.03;16.83;;;13.00;34.70;;;;;;5004483;28;20026;-70
2022/04/04 07:12:44;;;;;;;63.15;30.83;;;13.30;34.70;;;;;;4979565;28;20461;-71
2022/04/04 07:15:11;;;;;;;10.27;6.65;;;13.60;34.80;;;;;;4990439;28;20018;-71
2022/04/04 07:17:38;;;;;;;21.52;11.70;;;14.20;33.10;;;;;;4990626;28;20030;-71
2022/04/04 07:20:05;;;;;;;46.53;23.60;;;15.00;31.90;;;;;;4973685;28;20040;-72
2022/04/04 07:22:36;;;;;;;127.07;63.30;;;14.60;32.50;;;;;;4990732;28;20022;-73
2022/04/04 07:25:03;;;;;;;16.40;9.50;;;14.60;32.80;;;;;;4990775;28;20051;-73
2022/04/04 07:27:28;;;;;;;22.67;11.50;;;14.70;31.90;;;;;;4973049;28;20022;-71
2022/04/04 07:29:54;;;;;;;35.03;18.13;;;14.70;31.50;;;;;;4991712;28;20037;-73
2022/04/04 07:32:19;;;;;;;38.60;18.95;;;14.30;31.80;;;;;;4990914;28;20033;-72
2022/04/04 07:34:45;;;;;;;68.32;32.25;;;14.00;32.70;;;;;;4990646;28;20081;-71
2022/04/04 07:37:10;;;;;;;33.65;16.10;;;14.20;33.10;;;;;;4989426;28;20076;-69
2022/04/04 07:39:36;;;;;;;39.05;19.50;;;14.60;32.00;;;;;;4990763;28;20030;-71
2022/04/04 07:42:02;;;;;;;18.60;9.20;;;15.20;31.60;;;;;;4990656;28;20396;-72
2022/04/04 07:44:27;;;;;;;20.52;11.30;;;15.50;30.20;;;;;;4973164;28;20026;-70
2022/04/04 07:46:59;;;;;;;39.83;22.05;;;15.80;29.60;;;;;;4990133;28;20022;-71
2022/04/04 07:49:25;;;;;;;15.57;8.95;;;15.10;30.20;;;;;;4990538;28;20033;-72
2022/04/04 07:51:50;;;;;;;40.28;21.83;;;15.50;30.20;;;;;;4990464;28;20038;-71
2022/04/04 07:54:16;;;;;;;71.10;36.70;;;15.80;29.60;;;;;;4990404;28;20072;-72
2022/04/04 07:56:42;;;;;;;69.53;35.97;;;15.50;30.40;;;;;;4990065;28;20026;-70
2022/04/04 07:59:08;;;;;;;30.55;15.55;;;15.70;29.60;;;;;;4989385;28;20026;-71
2022/04/04 08:01:33;;;;;;;21.08;11.43;;;15.70;29.10;;;;;;4988138;28;20484;-69
2022/04/04 08:03:59;;;;;;;45.13;24.55;;;15.90;28.40;;;;;;4986294;28;20030;-69
2022/04/04 08:06:25;;;;;;;61.65;33.67;;;15.80;28.70;;;;;;4989796;28;20322;-72
2022/04/04 08:08:51;;;;;;;39.10;19.63;;;15.50;29.60;;;;;;4990371;28;20018;-70
2022/04/04 08:11:16;;;;;;;34.05;18.92;;;15.40;29.10;;;;;;5009586;28;20028;-71
2022/04/04 08:13:44;;;;;;;68.50;35.65;;;15.00;29.10;;;;;;5009767;28;20018;-70
2022/04/04 08:16:10;;;;;;;32.58;17.38;;;14.30;30.30;;;;;;4992989;28;20034;-72
2022/04/04 08:18:35;;;;;;;10.70;7.00;;;13.90;31.00;;;;;;4989361;28;20498;-71
2022/04/04 08:21:01;;;;;;;12.07;7.50;;;14.00;30.40;;;;;;4972281;28;20034;-68
2022/04/04 08:23:31;;;;;;;58.67;32.30;;;14.50;29.70;;;;;;4989226;28;20022;-72
2022/04/04 08:25:57;;;;;;;63.58;32.25;;;14.80;29.90;;;;;;4989985;28;20022;-74
2022/04/04 08:28:23;;;;;;;46.13;23.95;;;14.40;30.20;;;;;;4989289;28;20369;-75
2022/04/04 08:30:50;;;;;;;54.60;29.40;;;14.20;30.30;;;;;;4990758;28;20416;-70
2022/04/04 08:33:17;;;;;;;72.63;38.95;;;14.10;30.80;;;;;;4990560;28;20039;-70
2022/04/04 08:35:42;;;;;;;25.38;14.35;;;13.70;31.90;;;;;;4989534;28;20031;-69
2022/04/04 08:38:08;;;;;;;42.85;22.50;;;14.00;30.20;;;;;;4985936;28;20487;-70
2022/04/04 08:40:35;;;;;;;35.65;18.98;;;13.70;30.80;;;;;;4989622;28;20089;-70
2022/04/04 08:43:01;;;;;;;81.53;40.58;;;13.20;31.60;;;;;;4991721;28;20034;-71
2022/04/04 08:45:27;;;;;;;69.85;36.10;;;13.20;32.70;;;;;;4992292;28;20399;-71
2022/04/04 08:47:54;;;;;;;53.88;28.75;;;14.00;31.90;;;;;;4990709;28;20015;-71
2022/04/04 08:50:20;;;;;;;24.85;14.93;;;14.50;30.30;;;;;;4982809;28;20058;-71
2022/04/04 08:52:46;;;;;;;40.88;21.15;;;14.90;28.80;;;;;;4972769;28;20101;-71
2022/04/04 08:55:15;;;;;;;42.45;22.42;;;14.80;29.10;;;;;;4972541;28;20069;-70
2022/04/04 08:57:41;;;;;;;80.93;42.78;;;14.90;28.20;;;;;;4971910;28;20019;-71
2022/04/04 09:00:10;;;;;;;59.65;32.28;;;14.50;30.20;;;;;;4972672;28;20110;-70
2022/04/04 09:02:36;;;;;;;93.45;46.38;;;14.60;29.70;;;;;;4972452;28;20496;-70
2022/04/04 09:05:04;;;;;;;32.13;15.57;;;14.60;30.00;;;;;;4972387;28;20053;-69
2022/04/04 09:07:30;;;;;;;50.85;25.40;;;14.40;28.50;;;;;;4971444;28;20085;-70
2022/04/04 09:09:56;;;;;;;30.40;16.50;;;14.70;28.80;;;;;;4972733;28;20023;-71
2022/04/04 09:12:23;;;;;;;62.22;32.53;;;14.80;28.60;;;;;;4972754;28;20019;-70
2022/04/04 09:14:58;;;;;;;13.55;5.88;;;14.60;28.50;;;;;;4972330;28;20038;-70
2022/04/04 09:17:27;;;;;;;33.65;18.67;;;13.80;29.60;;;;;;4971633;28;20022;-70
2022/04/04 09:19:53;;;;;;;54.63;28.98;;;14.00;29.20;;;;;;4972768;28;20042;-70
2022/04/04 09:22:19;;;;;;;61.65;32.47;;;14.00;30.10;;;;;;4964464;28;20023;-70
2022/04/04 09:24:58;;;;;;;84.95;41.85;;;13.40;30.80;;;;;;4989482;28;20404;-71
2022/04/04 09:27:36;;;;;;;48.05;25.13;;;13.10;31.80;;;;;;4985903;28;20114;-70
2022/04/04 09:30:07;;;;;;;35.75;18.08;;;13.10;32.00;;;;;;4972360;28;20516;-70
2022/04/04 09:32:38;;;;;;;30.25;16.60;;;13.20;31.90;;;;;;4972525;28;20042;-71
2022/04/04 09:35:28;;;;;;;;;;;13.80;31.10;;;;;;4973957;28;20070;-70
2022/04/04 09:37:53;;;;;;;104.25;51.53;;;14.40;30.30;;;;;;4976363;28;20479;-70
2022/04/04 09:40:20;;;;;;;97.63;49.63;;;14.80;30.70;;;;;;4987300;28;20050;-71
2022/04/04 09:42:51;;;;;;;54.13;28.45;;;15.00;29.60;;;;;;4995528;28;20026;-70
2022/04/04 09:45:17;;;;;;;;;;;14.20;29.80;;;;;;4995654;28;20057;-71
2022/04/04 09:47:59;;;;;;;37.40;20.00;;;13.70;30.20;;;;;;4977248;28;19906;-69
2022/04/04 09:50:47;;;;;;;7.70;4.90;;;14.00;29.60;;;;;;4995596;28;20022;-69
2022/04/04 09:53:12;;;;;;;30.65;17.20;;;14.30;29.00;;;;;;4977728;28;20018;-70
2022/04/04 09:55:46;;;;;;;18.05;9.98;;;14.30;29.80;;;;;;4994978;28;20106;-69
2022/04/04 09:58:15;;;;;;;11.85;7.13;;;14.60;28.70;;;;;;4976900;28;20030;-70
2022/04/04 10:00:44;;;;;;;36.92;19.80;;;14.90;28.90;;;;;;4994507;28;20101;-70
2022/04/04 10:03:14;;;;;;;4.75;4.10;;;15.00;28.40;;;;;;4994819;28;20439;-70
2022/04/04 10:05:45;;;;;;;42.00;22.27;;;14.80;27.40;;;;;;4995052;28;20034;-69
2022/04/04 10:08:17;;;;;;;54.33;28.45;;;14.20;29.20;;;;;;4994226;28;20476;-70
2022/04/04 10:10:44;;;;;;;93.28;48.42;;;14.00;29.10;;;;;;4986747;28;20031;-69
2022/04/04 10:13:13;;;;;;;79.57;40.63;;;13.30;30.70;;;;;;4989803;28;20085;-70
2022/04/04 10:15:39;;;;;;;32.78;15.73;;;13.00;31.70;;;;;;4992621;28;20026;-70
2022/04/04 10:18:06;;;;;;;76.78;36.88;;;13.00;29.90;;;;;;4974355;28;20080;-71
2022/04/04 10:20:32;;;;;;;26.35;13.88;;;13.00;31.40;;;;;;4975252;28;20150;-70
2022/04/04 10:22:59;;;;;;;58.90;30.88;;;12.60;30.70;;;;;;4975064;28;20031;-71
2022/04/04 10:25:27;;;;;;;38.05;18.65;;;12.40;31.80;;;;;;4974957;28;20369;-71
2022/04/04 10:27:54;;;;;;;61.78;30.05;;;12.10;31.30;;;;;;4976712;28;20157;-70
2022/04/04 10:30:32;;;;;;;29.98;13.23;;;11.70;32.90;;;;;;4994776;28;20095;-70
2022/04/04 10:32:57;;;;;;;52.25;24.35;;;11.50;32.70;;;;;;4994460;28;20097;-70
2022/04/04 10:35:25;;;;;;;64.70;32.60;;;11.60;32.60;;;;;;4994091;28;20575;-70
2022/04/04 10:37:51;;;;;;;65.18;30.70;;;11.90;33.10;;;;;;4976058;28;20032;-70
2022/04/04 10:40:23;;;;;;;32.92;14.15;;;12.00;33.50;;;;;;4994014;28;20026;-70
2022/04/04 10:43:13;;;;;;;40.78;19.33;;;12.00;32.60;;;;;;4976765;28;20037;-70
2022/04/04 10:45:56;;;;;;;41.53;19.83;;;11.90;33.00;;;;;;4986913;28;20170;-70
2022/04/04 10:48:28;;;;;;;46.90;21.30;;;11.40;32.40;;;;;;4993649;28;20393;-70
2022/04/04 10:50:54;;;;;;;22.27;11.32;;;11.40;32.20;;;;;;4995918;28;20098;-70
2022/04/04 10:53:37;;;;;;;26.30;13.73;;;11.40;32.40;;;;;;4995709;28;20053;-70
2022/04/04 10:56:05;;;;;;;28.35;14.10;;;11.60;32.20;;;;;;4995817;28;20379;-70
2022/04/04 10:58:30;;;;;;;73.38;34.35;;;11.60;32.50;;;;;;4995558;28;20026;-70
2022/04/04 11:01:14;;;;;;;35.53;17.58;;;11.70;34.30;;;;;;4994670;28;20037;-71
2022/04/04 11:03:43;;;;;;;28.02;13.70;;;11.80;33.30;;;;;;4994887;28;20445;-70
2022/04/04 11:09:12;;;;;;;11.02;6.50;;;12.00;33.60;;;;;;4995041;28;20120;-70
2022/04/04 11:11:45;;;;;;;46.30;22.45;;;12.10;32.40;;;;;;4969970;28;20042;-70
2022/04/04 11:14:19;;;;;;;32.35;17.25;;;12.20;32.00;;;;;;4957260;28;20496;-71
2022/04/04 11:17:06;;;;;;;21.83;11.85;;;12.20;32.50;;;;;;4985308;28;20048;-70
2022/04/04 11:19:50;;;;;;;31.15;14.95;;;12.20;33.00;;;;;;4993560;28;20030;-71
2022/04/04 11:22:22;;;;;;;36.97;17.35;;;12.20;32.70;;;;;;4976219;28;20022;-71
2022/04/04 11:25:05;;;;;;;60.92;30.73;;;12.20;33.30;;;;;;4993808;28;20050;-70
2022/04/04 11:27:33;;;;;;;37.35;17.52;;;12.20;33.20;;;;;;4992968;28;20029;-70
2022/04/04 11:30:00;;;;;;;65.60;31.48;;;12.30;33.50;;;;;;4956734;28;20023;-70
2022/04/04 11:32:31;;;;;;;55.97;27.88;;;12.10;34.20;;;;;;4974073;28;20042;-70
2022/04/04 11:35:08;;;;;;;50.85;26.02;;;12.00;33.10;;;;;;4973993;28;20481;-70
2022/04/04 11:37:41;;;;;;;32.35;18.65;;;11.70;34.00;;;;;;4955542;28;20408;-71
2022/04/04 11:40:13;;;;;;;42.53;21.35;;;11.50;33.90;;;;;;4973848;28;20109;-71
2022/04/04 11:42:44;;;;;;;65.50;33.53;;;11.20;34.00;;;;;;4973838;28;20050;-70
2022/04/04 11:45:13;;;;;;;30.52;17.85;;;11.00;35.20;;;;;;4973753;28;20163;-70
2022/04/04 11:47:40;;;;;;;61.33;32.00;;;10.70;35.10;;;;;;4972891;28;20504;-71
2022/04/04 11:50:07;;;;;;;12.05;7.30;;;10.60;35.90;;;;;;4973792;28;20022;-71
2022/04/04 11:52:54;;;;;;;82.78;42.88;;;10.50;34.90;;;;;;4956312;28;20030;-71
2022/04/04 11:55:21;;;;;;;34.22;17.00;;;10.50;37.20;;;;;;4972996;28;20034;-70
2022/04/04 11:57:49;;;;;;;26.63;13.65;;;10.50;35.30;;;;;;4955500;28;20023;-70
2022/04/04 12:00:23;;;;;;;89.68;42.97;;;10.60;35.50;;;;;;4974934;28;20105;-70
2022/04/04 12:02:49;;;;;;;34.08;16.65;;;10.80;38.00;;;;;;4964184;28;20503;-70
2022/04/04 12:05:17;;;;;;;20.50;11.18;;;11.10;35.90;;;;;;4992480;28;20023;-71
2022/04/04 12:07:43;;;;;;;153.65;76.78;;;11.10;34.60;;;;;;4959450;28;20416;-71
2022/04/04 12:10:11;;;;;;;66.05;34.28;;;11.10;39.60;;;;;;4973450;28;20034;-70
2022/04/04 12:12:36;;;;;;;51.35;26.08;;;11.10;36.30;;;;;;4955849;28;20424;-70
2022/04/04 12:15:02;;;;;;;72.60;35.33;;;10.80;35.30;;;;;;4973154;28;20129;-71
2022/04/04 12:17:28;;;;;;;55.50;28.33;;;11.00;36.40;;;;;;4973168;28;20027;-71
2022/04/04 12:19:53;;;;;;;40.53;20.83;;;11.00;35.90;;;;;;4987517;28;20023;-71
2022/04/04 12:25:06;;;;;;;52.65;25.35;;;11.20;34.90;;;;;;4992274;28;20404;-69
2022/04/04 12:27:33;;;;;;;76.00;38.08;;;11.30;35.00;;;;;;4991664;28;20053;-69
2022/04/04 12:30:04;;;;;;;62.55;33.67;;;11.70;36.50;;;;;;4992335;28;20022;-71
2022/04/04 12:32:48;;;;;;;;;;;12.10;34.90;;;;;;4992765;28;20455;-70
2022/04/04 12:35:13;;;;;;;27.27;14.40;;;12.30;33.00;;;;;;4992035;28;19905;-71
2022/04/04 12:37:41;;;;;;;32.75;17.98;;;12.00;33.00;;;;;;4973906;28;20100;-71
2022/04/04 12:40:23;;;;;;;42.33;22.00;;;11.70;33.70;;;;;;4992403;28;20073;-71
2022/04/04 12:43:03;;;;;;;19.00;11.40;;;11.60;33.10;;;;;;4992472;28;20185;-72
2022/04/04 12:45:31;;;;;;;15.25;9.63;;;11.50;33.50;;;;;;4991832;28;20123;-72
2022/04/04 12:48:00;;;;;;;23.27;12.93;;;11.70;33.60;;;;;;4991368;28;20034;-71
2022/04/04 12:50:43;;;;;;;17.75;11.05;;;11.70;33.80;;;;;;4992367;28;20018;-71
2022/04/04 12:53:10;;;;;;;49.83;26.42;;;11.70;33.00;;;;;;4974686;28;20030;-71
2022/04/04 12:55:37;;;;;;;24.60;12.95;;;11.70;35.70;;;;;;4974618;28;20369;-70